Terminal Aerodrome Forecast
Issued by NWS

Home | Current Version | Previous Version | Graphics & Text | Print | Product List | Glossary On
Versions: 1 2 3 4 5 6 7 8 9 10 11 12 13 14 15 16 17
000
FTUS43 KGRB 280538
TAFRHI
TAF
KRHI 280538Z 2806/2906 04004KT P6SM SCT009 OVC025
      TEMPO 2806/2810 4SM -SHRA BR BKN009
     FM281000 VRB02KT 4SM BR VCSH SCT004 OVC012
      TEMPO 2810/2813 1SM BR BKN004
     FM281400 06004KT 5SM HZ VCSH BKN030
     FM281800 05004KT P6SM BKN035
     FM290100 VRB02KT P6SM SCT035 BKN100=

USA.gov is the U.S. government's official web portal to all federal, state and local government web resources and services.